This demonstration page uses our WeatherBlox Daily Observations layout. Learn more.

38.88101, -77.10428

Hourly Observations for August 12, 2019

Temp ( °F °C ) Dew Point ( °F °C ) Humidity (%) Winds ( mph kmh ) Pressure ( in mb ) Visibility ( mi km ) Precip ( " mm )
12:52 am 00:52 Mostly Clear 74 23.3 61 16.1 64 64 S 3 6 30 1016 10 16.09344 0 0
1:52 am 01:52 Clear 72 22.2 62 16.7 71 71 Calm 30 1016 10 16.09344 0 0
2:52 am 02:52 Mostly Clear 72 22.2 62 16.7 71 71 Calm 30 1016 10 16.09344 0 0
2:55 am 02:55 Mostly Cloudy 72 22.2 62 16.7 71 71 Calm 30.03 1017 10 16.09344 0 0
3:52 am 03:52 Mostly Cloudy 71 21.7 62 16.7 73 73 SW 3 6 30 1016 10 16.09344 0 0
4:52 am 04:52 Mostly Cloudy 70 21.1 62 16.7 76 76 SSW 3 6 30 1016 10 16.09344 0 0
5:52 am 05:52 Mostly Cloudy 71 21.7 63 17.2 76 76 Calm 30 1016 10 16.09344 0 0
6:52 am 06:52 Mostly Cloudy 70 21.1 64 17.8 82 82 Calm 30 1016 10 16.09344 0 0
7:52 am 07:52 Mostly Cloudy 73 22.8 66 18.9 79 79 Calm 30 1016 10 16.09344 0 0
8:52 am 08:52 Mostly Cloudy 76 24.4 64 17.8 67 67 SSE 6 9 30 1016 10 16.09344 0 0
9:52 am 09:52 Partly Cloudy 78 25.6 65 18.3 64 64 SSE 5 7 30 1016 10 16.09344 0 0
10:52 am 10:52 Mostly Sunny 81 27.2 66 18.9 61 61 S 8 13 30 1016 10 16.09344 0 0
11:52 am 11:52 Mostly Sunny 85 29.4 66 18.9 53 53 SSE 9 15 29.97 1015 10 16.09344 0 0
12:52 pm 12:52 Mostly Sunny 88 31.1 65 18.3 46 46 SSE 16 26 29.97 1015 10 16.09344 0 0
1:52 pm 13:52 Mostly Sunny 89 31.7 65 18.3 45 45 SSE 14 22 29.94 1014 10 16.09344 0 0
2:52 pm 14:52 Mostly Cloudy 89 31.7 65 18.3 45 45 S 10 17 29.94 1014 10 16.09344 0 0
3:52 pm 15:52 Mostly Cloudy 91 32.8 67 19.4 45 45 S 16 26 29.91 1013 10 16.09344 0 0
4:52 pm 16:52 Mostly Cloudy 90 32.2 67 19.4 47 47 S 14 22 29.88 1012 10 16.09344 0 0
5:52 pm 17:52 Mostly Cloudy 89 31.7 68 20 50 50 S 15 24 29.88 1012 10 16.09344 0 0
6:52 pm 18:52 Mostly Cloudy 87 30.6 68 20 53 53 S 12 19 29.85 1011 10 16.09344 0 0
7:52 pm 19:52 Mostly Cloudy 85 29.4 69 20.6 59 59 S 12 19 29.85 1011 10 16.09344 0 0
8:52 pm 20:52 Mostly Cloudy 83 28.3 69 20.6 63 63 S 10 17 29.88 1012 10 16.09344 0 0
9:52 pm 21:52 Mostly Cloudy 83 28.3 68 20 61 61 S 10 17 29.88 1012 10 16.09344 0 0
10:52 pm 22:52 Cloudy 82 27.8 66 18.9 58 58 S 12 19 29.88 1012 10 16.09344 0 0
11:52 pm 23:52 Cloudy 81 27.2 65 18.3 58 58 S 14 22 29.88 1012 10 16.09344 0 0

Powered by AerisWeather